createdAt,value
2023-06-27T00:00:35.752Z,20.45
2023-06-27T00:03:27.672Z,20.44
2023-06-27T00:06:01.892Z,20.43
2023-06-27T00:08:34.605Z,20.42
2023-06-27T00:11:07.367Z,20.40
2023-06-27T00:13:42.626Z,20.40
2023-06-27T00:16:15.082Z,20.36
2023-06-27T00:18:50.209Z,20.36
2023-06-27T00:21:30.144Z,20.28
2023-06-27T00:24:02.240Z,20.21
2023-06-27T00:26:34.729Z,20.20
2023-06-27T00:29:07.529Z,20.25
2023-06-27T00:31:39.664Z,20.32
2023-06-27T00:34:11.705Z,20.37
2023-06-27T00:36:44.995Z,20.47
2023-06-27T00:39:16.858Z,20.57
2023-06-27T00:41:48.600Z,20.66
2023-06-27T00:44:20.427Z,20.76
2023-06-27T00:46:53.114Z,20.84
2023-06-27T00:49:25.055Z,20.91
2023-06-27T00:51:57.562Z,20.97
2023-06-27T00:54:29.717Z,21.00
2023-06-27T00:57:02.391Z,21.03
2023-06-27T00:59:34.862Z,21.04
2023-06-27T01:02:10.040Z,21.03
2023-06-27T01:04:41.924Z,21.02
2023-06-27T01:07:18.965Z,20.99
2023-06-27T01:09:53.584Z,20.94
2023-06-27T01:12:30.153Z,20.89
2023-06-27T01:15:03.896Z,20.82
2023-06-27T01:17:38.348Z,20.75
2023-06-27T01:20:12.360Z,20.66
2023-06-27T01:22:47.113Z,20.60
2023-06-27T01:25:19.579Z,20.54
2023-06-27T01:27:51.561Z,20.49
2023-06-27T01:30:23.431Z,20.46
2023-06-27T01:33:00.276Z,20.42
2023-06-27T01:35:35.548Z,20.39
2023-06-27T01:38:12.897Z,20.37
2023-06-27T01:40:45.505Z,20.32
2023-06-27T01:43:18.145Z,20.28
2023-06-27T01:45:50.076Z,20.26
2023-06-27T01:48:22.207Z,20.23
2023-06-27T01:50:56.778Z,20.19
2023-06-27T01:53:28.814Z,20.17
2023-06-27T01:56:00.822Z,20.14
2023-06-27T01:58:33.122Z,20.12
2023-06-27T02:01:05.016Z,20.10
2023-06-27T02:03:37.210Z,20.10
2023-06-27T02:06:09.108Z,20.09
2023-06-27T02:08:41.216Z,20.07
2023-06-27T02:11:13.131Z,20.05
2023-06-27T02:13:45.332Z,20.03
2023-06-27T02:16:17.134Z,20.03
2023-06-27T02:18:49.064Z,20.03
2023-06-27T02:21:20.986Z,20.05
2023-06-27T02:23:53.200Z,20.07
2023-06-27T02:26:25.070Z,20.10
2023-06-27T02:28:57.096Z,20.11
2023-06-27T02:31:29.119Z,20.13
2023-06-27T02:34:01.558Z,20.15
2023-06-27T02:36:33.790Z,20.15
2023-06-27T02:39:06.395Z,20.15
2023-06-27T02:41:38.331Z,20.13
2023-06-27T02:44:10.331Z,20.08
2023-06-27T02:46:42.255Z,19.98
2023-06-27T02:49:14.226Z,19.86
2023-06-27T02:51:46.038Z,19.79
2023-06-27T02:54:17.980Z,19.71
2023-06-27T02:56:49.955Z,19.62
2023-06-27T02:59:21.910Z,19.50
2023-06-27T03:01:53.927Z,19.40
2023-06-27T03:04:26.543Z,19.32
2023-06-27T03:06:59.126Z,19.26
2023-06-27T03:09:31.406Z,19.18
2023-06-27T03:12:03.273Z,19.12
2023-06-27T03:14:35.203Z,19.08
2023-06-27T03:17:07.365Z,19.07
2023-06-27T03:19:44.636Z,19.10
2023-06-27T03:22:16.731Z,19.12
2023-06-27T03:24:49.268Z,19.13
2023-06-27T03:27:23.691Z,19.15
2023-06-27T03:29:55.833Z,19.09
2023-06-27T03:32:27.654Z,19.03
2023-06-27T03:34:59.712Z,18.98
2023-06-27T03:37:31.660Z,18.98
2023-06-27T03:40:04.318Z,19.00
2023-06-27T03:42:36.164Z,18.98
2023-06-27T03:45:09.819Z,18.88
2023-06-27T03:47:43.755Z,18.82
2023-06-27T03:50:15.935Z,18.78
2023-06-27T03:52:47.750Z,18.69
2023-06-27T03:55:19.891Z,18.59
2023-06-27T03:57:51.755Z,18.52
2023-06-27T04:00:23.646Z,18.50
2023-06-27T04:02:55.500Z,18.49
2023-06-27T04:05:27.661Z,18.50
2023-06-27T04:07:59.470Z,18.51
2023-06-27T04:10:33.570Z,18.51
2023-06-27T04:13:05.420Z,18.46
2023-06-27T04:15:41.165Z,18.42
2023-06-27T04:18:13.333Z,18.39
2023-06-27T04:20:45.168Z,18.38
2023-06-27T04:23:17.035Z,18.37
2023-06-27T04:26:04.439Z,18.38
2023-06-27T04:28:36.857Z,18.39
2023-06-27T04:31:10.701Z,18.39
2023-06-27T04:33:46.758Z,18.42
2023-06-27T04:36:21.724Z,18.44
2023-06-27T04:38:53.763Z,18.46
2023-06-27T04:41:30.339Z,18.46
2023-06-27T04:44:02.718Z,18.45
2023-06-27T04:46:34.821Z,18.39
2023-06-27T04:49:06.812Z,18.34
2023-06-27T04:51:40.504Z,18.33
2023-06-27T04:54:12.486Z,18.31
2023-06-27T04:56:45.054Z,18.31
2023-06-27T04:59:18.658Z,18.31
2023-06-27T05:01:50.625Z,18.31
2023-06-27T05:04:22.519Z,18.34
2023-06-27T05:06:55.393Z,18.36
2023-06-27T05:09:27.345Z,18.41
2023-06-27T05:11:59.526Z,18.45
2023-06-27T05:14:31.243Z,18.48
2023-06-27T05:17:03.439Z,18.47
2023-06-27T05:19:35.359Z,18.47
2023-06-27T05:22:07.698Z,18.48
2023-06-27T05:24:39.726Z,18.49
2023-06-27T05:27:12.000Z,18.50
2023-06-27T05:29:43.784Z,18.48
2023-06-27T05:32:15.880Z,18.46
2023-06-27T05:34:49.816Z,18.46
2023-06-27T05:37:22.022Z,18.46
2023-06-27T05:39:54.010Z,18.46
2023-06-27T05:42:25.893Z,18.43
2023-06-27T05:44:57.661Z,18.38
2023-06-27T05:47:29.727Z,18.32
2023-06-27T05:50:02.171Z,18.23
2023-06-27T05:52:34.343Z,18.18
2023-06-27T05:55:07.326Z,18.18
2023-06-27T05:57:39.290Z,18.16
2023-06-27T06:00:14.827Z,18.11
2023-06-27T06:02:47.312Z,18.08
2023-06-27T06:05:19.725Z,18.04
2023-06-27T06:07:51.863Z,17.98
2023-06-27T06:10:25.468Z,17.92
2023-06-27T06:12:57.268Z,17.84
2023-06-27T06:15:29.368Z,17.73
2023-06-27T06:18:01.303Z,17.55
2023-06-27T06:20:33.316Z,17.38
2023-06-27T06:23:05.490Z,17.25
2023-06-27T06:25:37.706Z,17.11
2023-06-27T06:28:09.772Z,16.97
2023-06-27T06:30:41.640Z,16.90
2023-06-27T06:33:13.868Z,16.82
2023-06-27T06:35:45.638Z,16.76
2023-06-27T06:38:17.584Z,16.72
2023-06-27T06:40:49.426Z,16.71
2023-06-27T06:43:21.335Z,16.71
2023-06-27T06:45:55.281Z,16.73
2023-06-27T06:48:27.289Z,16.73
2023-06-27T06:51:00.211Z,16.75
2023-06-27T06:53:32.571Z,16.76
2023-06-27T06:56:04.508Z,16.78
2023-06-27T06:58:37.611Z,16.83
2023-06-27T07:01:09.814Z,16.88
2023-06-27T07:03:42.757Z,16.91
2023-06-27T07:06:14.654Z,16.96
2023-06-27T07:08:46.577Z,17.01
2023-06-27T07:11:18.575Z,17.06
2023-06-27T07:13:51.016Z,17.11
2023-06-27T07:16:23.009Z,17.15
2023-06-27T07:18:55.290Z,17.22
2023-06-27T07:21:27.013Z,17.29
2023-06-27T07:23:58.941Z,17.38
2023-06-27T07:26:30.870Z,17.47
2023-06-27T07:29:02.835Z,17.58
2023-06-27T07:31:34.799Z,17.71
2023-06-27T07:34:07.016Z,17.87
2023-06-27T07:36:39.735Z,17.99
2023-06-27T07:39:11.767Z,18.06
2023-06-27T07:41:43.989Z,18.10
2023-06-27T07:44:15.979Z,18.17
2023-06-27T07:46:47.825Z,18.25
2023-06-27T07:49:19.915Z,18.30
2023-06-27T07:51:52.898Z,18.36
2023-06-27T07:54:27.971Z,18.42
2023-06-27T07:56:59.870Z,18.49
2023-06-27T07:59:32.069Z,18.55
2023-06-27T08:02:04.013Z,18.66
2023-06-27T08:04:35.943Z,18.82
2023-06-27T08:07:11.460Z,18.97
2023-06-27T08:09:44.211Z,19.11
2023-06-27T08:12:16.160Z,19.22
2023-06-27T08:14:48.875Z,19.28
2023-06-27T08:17:21.002Z,19.45
2023-06-27T08:19:53.007Z,19.60
2023-06-27T08:22:25.448Z,19.59
2023-06-27T08:24:57.459Z,19.58
2023-06-27T08:27:29.659Z,19.59
2023-06-27T08:30:01.540Z,19.59
2023-06-27T08:32:33.664Z,19.58
2023-06-27T08:35:08.103Z,19.60
2023-06-27T08:37:40.178Z,19.63
2023-06-27T08:40:15.580Z,19.67
2023-06-27T08:42:47.498Z,19.71
2023-06-27T08:45:19.649Z,19.70
2023-06-27T08:47:52.269Z,19.68
2023-06-27T08:50:25.566Z,19.68
2023-06-27T08:53:00.059Z,19.63
2023-06-27T08:55:37.266Z,19.62
2023-06-27T08:58:12.993Z,19.66
2023-06-27T09:00:44.913Z,19.76
2023-06-27T09:03:17.049Z,19.90
2023-06-27T09:05:49.851Z,20.01
2023-06-27T09:08:22.872Z,20.08
2023-06-27T09:10:55.123Z,20.13
2023-06-27T09:13:27.637Z,20.16
2023-06-27T09:15:59.768Z,20.16
2023-06-27T09:18:31.731Z,20.13
2023-06-27T09:21:04.326Z,20.23
2023-06-27T09:23:36.612Z,20.33
2023-06-27T09:26:12.679Z,20.38
2023-06-27T09:28:52.012Z,20.39
2023-06-27T09:31:24.752Z,20.50
2023-06-27T09:34:09.537Z,20.73
2023-06-27T09:39:18.802Z,21.05
2023-06-27T09:41:51.820Z,21.16
2023-06-27T09:44:26.452Z,21.26
2023-06-27T09:46:59.356Z,21.32
2023-06-27T09:49:33.147Z,21.36
2023-06-27T09:52:07.874Z,21.32
2023-06-27T09:54:44.549Z,21.26
2023-06-27T09:57:22.782Z,21.14
2023-06-27T10:00:00.730Z,21.08
2023-06-27T10:02:34.474Z,21.08
2023-06-27T10:05:05.408Z,21.14
2023-06-27T10:07:38.046Z,21.28
2023-06-27T10:10:12.422Z,21.49
2023-06-27T10:12:45.177Z,21.73
2023-06-27T10:15:18.136Z,21.84
2023-06-27T10:17:50.719Z,21.89
2023-06-27T10:20:23.131Z,21.89
2023-06-27T10:22:55.577Z,21.99
2023-06-27T10:25:29.041Z,21.89
2023-06-27T10:28:09.295Z,21.84
2023-06-27T10:30:48.793Z,22.06
2023-06-27T10:33:30.354Z,22.39
2023-06-27T10:36:04.643Z,22.66
2023-06-27T10:38:37.658Z,22.82
2023-06-27T10:41:35.008Z,22.95
2023-06-27T10:44:14.090Z,22.98
2023-06-27T10:46:47.153Z,22.94
2023-06-27T10:49:18.855Z,22.92
2023-06-27T10:51:50.598Z,22.95
2023-06-27T10:54:22.793Z,23.01
2023-06-27T10:56:57.931Z,22.96
2023-06-27T10:59:30.081Z,22.96
2023-06-27T11:02:06.140Z,23.13
2023-06-27T11:04:44.034Z,23.44
2023-06-27T11:07:20.526Z,23.72
2023-06-27T11:09:56.552Z,23.84
2023-06-27T11:12:37.881Z,23.92
2023-06-27T11:15:11.430Z,23.98
2023-06-27T11:17:43.385Z,24.12
2023-06-27T11:20:15.794Z,24.25
2023-06-27T11:22:48.568Z,24.31
2023-06-27T11:25:22.002Z,24.33
2023-06-27T11:28:00.566Z,24.33
2023-06-27T11:30:34.649Z,24.51
2023-06-27T11:33:07.084Z,24.60
2023-06-27T11:35:41.017Z,24.54
2023-06-27T11:38:14.191Z,24.29
2023-06-27T11:40:53.292Z,24.02
2023-06-27T11:43:25.434Z,23.60
2023-06-27T11:45:58.585Z,23.31
2023-06-27T11:48:30.758Z,23.06
2023-06-27T11:51:08.774Z,23.16
2023-06-27T11:53:41.770Z,23.59
2023-06-27T11:56:22.019Z,23.97
2023-06-27T11:58:58.749Z,24.37
2023-06-27T12:01:34.635Z,24.25
2023-06-27T12:04:16.531Z,23.97
2023-06-27T12:06:50.273Z,23.77
2023-06-27T12:09:28.767Z,23.55
2023-06-27T12:12:05.152Z,23.10
2023-06-27T12:14:37.572Z,22.69
2023-06-27T12:17:23.541Z,22.33
2023-06-27T12:19:55.279Z,22.14
2023-06-27T12:22:27.190Z,22.24
2023-06-27T12:24:59.182Z,22.46
2023-06-27T12:27:37.362Z,22.79
2023-06-27T12:30:13.294Z,23.16
2023-06-27T12:32:45.215Z,23.19
2023-06-27T12:35:19.263Z,22.98
2023-06-27T12:37:51.615Z,22.87
2023-06-27T12:40:24.374Z,22.94
2023-06-27T12:42:59.512Z,23.17
2023-06-27T12:45:39.210Z,23.43
2023-06-27T12:48:14.297Z,23.73
2023-06-27T12:50:46.166Z,23.77
2023-06-27T12:53:18.622Z,23.57
2023-06-27T12:55:50.631Z,23.42
2023-06-27T12:58:22.521Z,23.39
2023-06-27T13:00:56.365Z,23.56
2023-06-27T13:03:28.377Z,23.80
2023-06-27T13:06:00.461Z,24.02
2023-06-27T13:08:32.371Z,24.17
2023-06-27T13:11:04.516Z,24.26
2023-06-27T13:13:37.842Z,24.12
2023-06-27T13:16:16.004Z,23.89
2023-06-27T13:18:48.416Z,23.65
2023-06-27T13:21:20.849Z,23.53
2023-06-27T13:23:53.581Z,23.56
2023-06-27T13:26:25.570Z,23.72
2023-06-27T13:28:58.014Z,23.96
2023-06-27T13:31:30.481Z,23.91
2023-06-27T13:34:02.699Z,23.59
2023-06-27T13:36:34.952Z,23.06
2023-06-27T13:39:07.134Z,22.63
2023-06-27T13:41:39.057Z,22.24
2023-06-27T13:44:12.572Z,21.96
2023-06-27T13:46:44.801Z,21.56
2023-06-27T13:49:16.711Z,21.20
2023-06-27T13:51:48.671Z,20.93
2023-06-27T13:54:20.682Z,20.84
2023-06-27T13:56:52.747Z,20.84
2023-06-27T13:59:24.740Z,21.02
2023-06-27T14:01:57.078Z,21.11
2023-06-27T14:04:28.871Z,21.18
2023-06-27T14:07:01.582Z,21.15
2023-06-27T14:09:33.697Z,21.11
2023-06-27T14:12:08.673Z,21.01
2023-06-27T14:14:40.659Z,20.68
2023-06-27T14:17:12.609Z,20.39
2023-06-27T14:19:44.831Z,20.10
2023-06-27T14:22:16.913Z,19.96
2023-06-27T14:24:49.165Z,19.85
2023-06-27T14:27:21.616Z,19.77
2023-06-27T14:29:53.617Z,19.71
2023-06-27T14:32:26.082Z,19.74
2023-06-27T14:34:58.103Z,19.96
2023-06-27T14:37:30.061Z,20.29
2023-06-27T14:40:02.060Z,20.63
2023-06-27T14:42:34.240Z,20.92
2023-06-27T14:45:07.126Z,21.14
2023-06-27T14:47:39.200Z,21.31
2023-06-27T14:50:12.538Z,21.34
2023-06-27T14:52:44.511Z,21.31
2023-06-27T14:55:16.571Z,21.16
2023-06-27T14:57:48.561Z,20.99
2023-06-27T15:00:21.531Z,20.79
2023-06-27T15:02:53.632Z,20.63
2023-06-27T15:05:26.225Z,20.50
2023-06-27T15:07:58.029Z,20.39
2023-06-27T15:10:30.246Z,20.36
2023-06-27T15:13:02.467Z,20.40
2023-06-27T15:15:34.678Z,20.42
2023-06-27T15:18:06.882Z,20.45
2023-06-27T15:20:39.076Z,20.61
2023-06-27T15:23:12.263Z,20.91
2023-06-27T15:25:47.234Z,21.32
2023-06-27T15:28:19.423Z,21.66
2023-06-27T15:30:51.589Z,21.98
2023-06-27T15:33:23.506Z,22.31
2023-06-27T15:35:55.543Z,22.38
2023-06-27T15:38:27.595Z,22.28
2023-06-27T15:41:01.182Z,22.26
2023-06-27T15:43:36.968Z,22.23
2023-06-27T15:46:09.041Z,22.17
2023-06-27T15:48:41.411Z,22.10
2023-06-27T15:51:13.250Z,22.10
2023-06-27T15:53:45.027Z,22.21
2023-06-27T15:56:18.005Z,22.33
2023-06-27T15:58:50.225Z,22.33
2023-06-27T16:01:22.125Z,22.14
2023-06-27T16:03:54.207Z,21.95
2023-06-27T16:06:27.793Z,21.91
2023-06-27T16:08:59.814Z,21.92
2023-06-27T16:11:32.740Z,21.96
2023-06-27T16:14:06.086Z,21.94
2023-06-27T16:16:36.758Z,22.01
2023-06-27T16:19:09.103Z,22.11
2023-06-27T16:21:41.818Z,22.17
2023-06-27T16:24:13.721Z,22.17
2023-06-27T16:26:46.327Z,22.16
2023-06-27T16:29:18.380Z,22.19
2023-06-27T16:31:51.664Z,22.19
2023-06-27T16:34:23.814Z,22.19
2023-06-27T16:36:55.747Z,22.06
2023-06-27T16:39:27.583Z,21.90
2023-06-27T16:41:59.560Z,21.75
2023-06-27T16:44:31.736Z,21.63
2023-06-27T16:47:03.908Z,21.49
2023-06-27T16:49:35.858Z,21.35
2023-06-27T16:52:09.529Z,21.23
2023-06-27T16:54:41.529Z,21.03
2023-06-27T16:57:13.673Z,20.57
2023-06-27T16:59:45.535Z,20.16
2023-06-27T17:02:17.562Z,19.86
2023-06-27T17:04:49.617Z,19.52
2023-06-27T17:07:21.835Z,19.34
2023-06-27T17:09:53.763Z,19.25
2023-06-27T17:12:26.062Z,19.24
2023-06-27T17:14:58.316Z,19.30
2023-06-27T17:17:30.154Z,19.31
2023-06-27T17:20:02.168Z,19.29
2023-06-27T17:22:34.106Z,19.29
2023-06-27T17:25:06.648Z,19.28
2023-06-27T17:27:38.866Z,19.25
2023-06-27T17:30:13.120Z,19.23
2023-06-27T17:32:47.302Z,19.25
2023-06-27T17:35:19.527Z,19.27
2023-06-27T17:37:51.325Z,19.32
2023-06-27T17:40:23.771Z,19.41
2023-06-27T17:42:55.847Z,19.47
2023-06-27T17:45:29.594Z,19.46
2023-06-27T17:48:02.276Z,19.48
2023-06-27T17:50:34.872Z,19.52
2023-06-27T17:53:07.377Z,19.57
2023-06-27T17:55:39.500Z,19.64
2023-06-27T17:58:12.216Z,19.69
2023-06-27T18:00:45.034Z,19.73
2023-06-27T18:03:17.498Z,19.75
2023-06-27T18:05:50.297Z,19.78
2023-06-27T18:08:27.233Z,19.79
2023-06-27T18:11:04.488Z,19.79
2023-06-27T18:13:37.031Z,19.77
2023-06-27T18:16:10.886Z,19.79
2023-06-27T18:18:41.837Z,19.82
2023-06-27T18:21:14.414Z,19.82
2023-06-27T18:23:47.138Z,19.80
2023-06-27T18:26:20.327Z,19.73
2023-06-27T18:28:52.474Z,19.65
2023-06-27T18:31:25.502Z,19.54
2023-06-27T18:33:57.790Z,19.46
2023-06-27T18:36:29.930Z,19.38
2023-06-27T18:39:06.385Z,19.27
2023-06-27T18:41:39.287Z,19.19
2023-06-27T18:44:11.958Z,19.15
2023-06-27T18:46:44.020Z,19.09
2023-06-27T18:49:16.213Z,18.99
2023-06-27T18:51:48.063Z,18.90
2023-06-27T18:54:20.057Z,18.82
2023-06-27T18:56:52.082Z,18.78
2023-06-27T18:59:24.233Z,18.78
2023-06-27T19:01:56.418Z,18.78
2023-06-27T19:04:28.831Z,18.78
2023-06-27T19:07:00.844Z,18.78
2023-06-27T19:09:32.701Z,18.77
2023-06-27T19:12:04.917Z,18.75
2023-06-27T19:14:36.908Z,18.73
2023-06-27T19:17:13.445Z,18.68
2023-06-27T19:19:50.990Z,18.63
2023-06-27T19:22:23.874Z,18.60
2023-06-27T19:24:56.492Z,18.60
2023-06-27T19:27:28.396Z,18.58
2023-06-27T19:30:00.413Z,18.58
2023-06-27T19:32:32.813Z,18.58
2023-06-27T19:35:04.761Z,18.58
2023-06-27T19:37:37.675Z,18.58
2023-06-27T19:40:11.940Z,18.57
2023-06-27T19:42:43.944Z,18.57
2023-06-27T19:45:16.048Z,18.57
2023-06-27T19:47:48.313Z,18.54
2023-06-27T19:50:20.713Z,18.53
2023-06-27T19:52:52.807Z,18.52
2023-06-27T19:55:25.290Z,18.50
2023-06-27T19:57:59.473Z,18.47
2023-06-27T20:00:31.617Z,18.43
2023-06-27T20:03:03.673Z,18.39
2023-06-27T20:05:40.314Z,18.34
2023-06-27T20:08:14.036Z,18.30
2023-06-27T20:10:46.018Z,18.26
2023-06-27T20:13:17.869Z,18.23
2023-06-27T20:15:51.003Z,18.21
2023-06-27T20:18:23.496Z,18.21
2023-06-27T20:20:55.549Z,18.18
2023-06-27T20:23:28.004Z,18.15
2023-06-27T20:25:59.932Z,18.12
2023-06-27T20:28:31.821Z,18.08
2023-06-27T20:31:03.917Z,18.06
2023-06-27T20:33:36.215Z,18.02
2023-06-27T20:36:08.965Z,17.99
2023-06-27T20:38:41.892Z,17.94
2023-06-27T20:41:16.430Z,17.92
2023-06-27T20:43:48.819Z,17.90
2023-06-27T20:46:20.686Z,17.88
2023-06-27T20:48:52.833Z,17.86
2023-06-27T20:51:24.540Z,17.83
2023-06-27T20:53:56.720Z,17.81
2023-06-27T20:56:28.768Z,17.79
2023-06-27T20:59:00.704Z,17.75
2023-06-27T21:01:34.114Z,17.71
2023-06-27T21:04:07.223Z,17.68
2023-06-27T21:06:39.149Z,17.64
2023-06-27T21:09:11.013Z,17.61
2023-06-27T21:11:43.454Z,17.57
2023-06-27T21:14:15.315Z,17.52
2023-06-27T21:16:47.038Z,17.46
2023-06-27T21:19:18.843Z,17.41
2023-06-27T21:21:51.409Z,17.39
2023-06-27T21:24:23.402Z,17.34
2023-06-27T21:26:55.474Z,17.30
2023-06-27T21:29:27.328Z,17.26
2023-06-27T21:31:59.534Z,17.21
2023-06-27T21:34:31.729Z,17.15
2023-06-27T21:37:03.727Z,17.10
2023-06-27T21:39:35.828Z,17.06
2023-06-27T21:42:08.871Z,17.01
2023-06-27T21:44:40.964Z,16.96
2023-06-27T21:47:13.033Z,16.90
2023-06-27T21:49:48.484Z,16.86
2023-06-27T21:52:21.025Z,16.82
2023-06-27T21:54:53.136Z,16.79
2023-06-27T21:57:25.306Z,16.75
2023-06-27T21:59:57.211Z,16.69
2023-06-27T22:02:30.823Z,16.63
2023-06-27T22:05:03.669Z,16.59
2023-06-27T22:07:36.198Z,16.54
2023-06-27T22:10:09.615Z,16.48
2023-06-27T22:12:41.959Z,16.43
2023-06-27T22:15:14.764Z,16.42
2023-06-27T22:17:49.811Z,16.38
2023-06-27T22:20:22.310Z,16.35
2023-06-27T22:22:57.990Z,16.32
2023-06-27T22:25:30.938Z,16.29
2023-06-27T22:28:03.809Z,16.25
2023-06-27T22:30:36.645Z,16.21
2023-06-27T22:33:08.749Z,16.16
2023-06-27T22:35:40.813Z,16.09
2023-06-27T22:38:13.152Z,16.05
2023-06-27T22:40:45.533Z,16.00
2023-06-27T22:43:17.577Z,15.95
2023-06-27T22:45:49.906Z,15.91
2023-06-27T22:48:22.138Z,15.87
2023-06-27T22:50:55.761Z,15.81
2023-06-27T22:53:28.611Z,15.77
2023-06-27T22:56:03.615Z,15.73
2023-06-27T22:58:35.939Z,15.71
2023-06-27T23:01:08.697Z,15.66
2023-06-27T23:03:41.024Z,15.62
2023-06-27T23:06:13.094Z,15.59
2023-06-27T23:08:45.523Z,15.56
2023-06-27T23:11:19.316Z,15.53
2023-06-27T23:13:53.035Z,15.51
2023-06-27T23:16:25.157Z,15.47
2023-06-27T23:18:59.803Z,15.45
2023-06-27T23:21:34.376Z,15.43
2023-06-27T23:24:10.299Z,15.40
2023-06-27T23:26:43.972Z,15.37
2023-06-27T23:29:18.033Z,15.36
2023-06-27T23:31:51.030Z,15.33
2023-06-27T23:34:24.745Z,15.31
2023-06-27T23:36:57.277Z,15.27
2023-06-27T23:39:29.371Z,15.24
2023-06-27T23:42:01.445Z,15.20
2023-06-27T23:44:33.479Z,15.17
2023-06-27T23:47:05.305Z,15.14
2023-06-27T23:49:37.606Z,15.12
2023-06-27T23:52:10.504Z,15.10
2023-06-27T23:54:42.476Z,15.06
2023-06-27T23:57:14.398Z,15.02
2023-06-27T23:59:46.402Z,14.97
